createdAt,value
2022-12-05T00:01:43.664Z,6.27
2022-12-05T00:04:12.881Z,5.90
2022-12-05T00:06:41.587Z,5.27
2022-12-05T00:09:10.597Z,5.60
2022-12-05T00:11:39.408Z,5.53
2022-12-05T00:14:08.640Z,5.17
2022-12-05T00:16:37.772Z,4.27
2022-12-05T00:19:06.726Z,5.80
2022-12-05T00:21:35.381Z,4.90
2022-12-05T00:24:04.187Z,5.87
2022-12-05T00:26:31.876Z,6.90
2022-12-05T00:28:58.896Z,5.23
2022-12-05T00:31:27.943Z,5.43
2022-12-05T00:33:57.563Z,5.10
2022-12-05T00:36:27.888Z,4.97
2022-12-05T00:38:56.168Z,4.90
2022-12-05T00:41:26.672Z,5.23
2022-12-05T00:43:53.897Z,6.87
2022-12-05T00:46:24.071Z,5.53
2022-12-05T00:48:53.120Z,5.97
2022-12-05T00:51:23.272Z,5.50
2022-12-05T00:53:50.618Z,6.00
2022-12-05T00:56:21.776Z,5.60
2022-12-05T00:58:49.112Z,4.93
2022-12-05T01:01:21.601Z,4.93
2022-12-05T01:03:49.202Z,4.20
2022-12-05T01:06:16.405Z,4.63
2022-12-05T01:08:43.580Z,4.23
2022-12-05T01:11:11.379Z,4.80
2022-12-05T01:13:38.185Z,4.80
2022-12-05T01:16:05.246Z,5.07
2022-12-05T01:18:32.196Z,5.00
2022-12-05T01:21:02.966Z,4.80
2022-12-05T01:23:33.016Z,6.17
2022-12-05T01:26:05.564Z,5.23
2022-12-05T01:28:32.148Z,5.23
2022-12-05T01:30:59.690Z,5.50
2022-12-05T01:33:26.252Z,4.37
2022-12-05T01:35:52.762Z,4.37
2022-12-05T01:38:19.299Z,4.70
2022-12-05T01:40:45.817Z,3.57
2022-12-05T01:43:18.234Z,4.30
2022-12-05T01:45:46.709Z,4.07
2022-12-05T01:48:21.686Z,3.70
2022-12-05T01:50:49.632Z,4.23
2022-12-05T01:53:17.836Z,4.10
2022-12-05T01:55:46.096Z,4.57
2022-12-05T01:58:13.120Z,3.37
2022-12-05T02:00:40.147Z,3.50
2022-12-05T02:03:09.697Z,4.23
2022-12-05T02:05:37.486Z,3.40
2022-12-05T02:08:07.680Z,3.73
2022-12-05T02:10:38.942Z,3.07
2022-12-05T02:13:34.762Z,3.00
2022-12-05T02:16:18.562Z,3.33
2022-12-05T02:19:20.954Z,3.13
2022-12-05T02:22:08.625Z,3.73
2022-12-05T02:24:56.791Z,2.80
2022-12-05T02:27:54.833Z,2.80
2022-12-05T02:30:24.556Z,3.10
2022-12-05T02:33:24.470Z,2.30
2022-12-05T02:36:06.466Z,3.93
2022-12-05T02:39:16.956Z,3.30
2022-12-05T02:42:05.144Z,3.07
2022-12-05T02:44:39.151Z,3.30
2022-12-05T02:47:08.287Z,3.30
2022-12-05T02:49:37.123Z,3.00
2022-12-05T02:52:09.993Z,3.53
2022-12-05T02:54:42.832Z,3.00
2022-12-05T02:57:11.737Z,3.13
2022-12-05T02:59:38.265Z,3.23
2022-12-05T03:02:05.502Z,2.53
2022-12-05T03:04:34.446Z,2.60
2022-12-05T03:07:05.966Z,2.67
2022-12-05T03:09:44.846Z,3.10
2022-12-05T03:12:16.984Z,3.27
2022-12-05T03:14:49.754Z,3.20
2022-12-05T03:17:24.621Z,3.50
2022-12-05T03:20:27.340Z,2.60
2022-12-05T03:23:19.607Z,2.30
2022-12-05T03:26:17.876Z,2.40
2022-12-05T03:28:55.839Z,2.80
2022-12-05T03:31:38.155Z,3.37
2022-12-05T03:34:08.402Z,2.83
2022-12-05T03:36:42.583Z,3.27
2022-12-05T03:39:18.565Z,2.90
2022-12-05T03:42:14.269Z,3.33
2022-12-05T03:45:03.642Z,3.43
2022-12-05T03:47:53.004Z,3.33
2022-12-05T03:50:25.467Z,3.50
2022-12-05T03:53:19.665Z,3.37
2022-12-05T03:55:54.846Z,3.57
2022-12-05T03:58:28.033Z,3.37
2022-12-05T04:00:57.681Z,3.70
2022-12-05T04:03:39.348Z,3.90
2022-12-05T04:06:23.195Z,3.50
2022-12-05T04:09:04.454Z,3.50
2022-12-05T04:11:37.516Z,3.60
2022-12-05T04:14:13.654Z,3.43
2022-12-05T04:17:04.521Z,3.00
2022-12-05T04:20:03.701Z,2.97
2022-12-05T04:22:30.587Z,3.70
2022-12-05T04:25:18.641Z,2.90
2022-12-05T04:27:53.972Z,2.67
2022-12-05T04:30:24.510Z,2.53
2022-12-05T04:33:16.555Z,3.10
2022-12-05T04:36:14.068Z,2.87
2022-12-05T04:38:51.547Z,2.67
2022-12-05T04:41:27.152Z,3.47
2022-12-05T04:43:58.050Z,3.23
2022-12-05T04:46:25.328Z,3.00
2022-12-05T04:49:02.365Z,3.40
2022-12-05T04:51:32.806Z,3.17
2022-12-05T04:54:04.760Z,2.70
2022-12-05T04:56:36.286Z,3.47
2022-12-05T04:59:02.932Z,3.50
2022-12-05T05:01:35.908Z,3.37
2022-12-05T05:04:12.205Z,3.53
2022-12-05T05:06:42.217Z,3.37
2022-12-05T05:09:11.306Z,3.57
2022-12-05T05:11:38.048Z,3.47
2022-12-05T05:14:05.397Z,3.10
2022-12-05T05:16:37.843Z,3.80
2022-12-05T05:19:05.818Z,2.93
2022-12-05T05:21:35.481Z,2.73
2022-12-05T05:24:03.418Z,2.83
2022-12-05T05:26:31.538Z,3.10
2022-12-05T05:28:58.643Z,2.57
2022-12-05T05:31:25.446Z,2.90
2022-12-05T05:33:53.745Z,3.20
2022-12-05T05:36:21.902Z,2.93
2022-12-05T05:38:50.600Z,2.97
2022-12-05T05:41:22.900Z,3.53
2022-12-05T05:43:50.656Z,2.87
2022-12-05T05:46:21.117Z,3.07
2022-12-05T05:48:48.004Z,3.23
2022-12-05T05:51:16.318Z,2.90
2022-12-05T05:53:46.259Z,2.83
2022-12-05T05:56:21.237Z,3.07
2022-12-05T05:58:54.825Z,2.90
2022-12-05T06:01:21.589Z,3.10
2022-12-05T06:03:48.818Z,2.77
2022-12-05T06:06:16.197Z,3.03
2022-12-05T06:08:44.706Z,2.77
2022-12-05T06:11:13.589Z,3.20
2022-12-05T06:13:41.478Z,3.40
2022-12-05T06:16:11.975Z,3.63
2022-12-05T06:18:38.738Z,3.90
2022-12-05T06:21:11.802Z,3.40
2022-12-05T06:23:43.581Z,4.47
2022-12-05T06:26:13.596Z,4.87
2022-12-05T06:28:42.041Z,4.37
2022-12-05T06:31:14.837Z,5.17
2022-12-05T06:33:42.880Z,4.27
2022-12-05T06:36:13.217Z,3.40
2022-12-05T06:38:42.215Z,4.10
2022-12-05T06:41:13.859Z,3.33
2022-12-05T06:43:42.260Z,3.57
2022-12-05T06:46:12.009Z,3.20
2022-12-05T06:48:38.703Z,3.17
2022-12-05T06:51:07.030Z,3.43
2022-12-05T06:53:33.640Z,3.50
2022-12-05T06:56:05.780Z,2.80
2022-12-05T06:58:32.293Z,3.57
2022-12-05T07:01:17.453Z,2.70
2022-12-05T07:03:44.218Z,3.67
2022-12-05T07:06:15.465Z,3.10
2022-12-05T07:08:43.373Z,2.90
2022-12-05T07:11:12.872Z,3.10
2022-12-05T07:13:39.497Z,3.00
2022-12-05T07:16:07.377Z,3.10
2022-12-05T07:18:34.883Z,3.40
2022-12-05T07:21:12.874Z,3.63
2022-12-05T07:23:42.863Z,3.40
2022-12-05T07:26:13.464Z,3.30
2022-12-05T07:28:40.042Z,3.53
2022-12-05T07:31:16.200Z,4.30
2022-12-05T07:33:43.781Z,4.03
2022-12-05T07:36:16.922Z,3.30
2022-12-05T07:38:44.711Z,3.57
2022-12-05T07:41:17.891Z,3.37
2022-12-05T07:43:44.418Z,3.47
2022-12-05T07:46:16.220Z,3.97
2022-12-05T07:48:48.118Z,3.17
2022-12-05T07:51:14.980Z,3.37
2022-12-05T07:53:46.587Z,3.73
2022-12-05T07:56:17.031Z,6.37
2022-12-05T07:58:45.694Z,15.03
2022-12-05T08:01:18.349Z,9.40
2022-12-05T08:03:45.753Z,4.97
2022-12-05T08:06:17.738Z,3.50
2022-12-05T08:08:45.064Z,4.00
2022-12-05T08:11:18.039Z,3.93
2022-12-05T08:13:45.276Z,3.30
2022-12-05T08:16:15.573Z,4.67
2022-12-05T08:18:43.724Z,3.57
2022-12-05T08:21:13.654Z,4.10
2022-12-05T08:23:42.429Z,3.90
2022-12-05T08:26:13.497Z,3.20
2022-12-05T08:28:40.216Z,3.77
2022-12-05T08:31:16.299Z,3.87
2022-12-05T08:33:43.984Z,4.00
2022-12-05T08:36:15.558Z,4.10
2022-12-05T08:38:46.210Z,4.40
2022-12-05T08:41:16.473Z,3.80
2022-12-05T08:43:47.235Z,4.50
2022-12-05T08:46:13.832Z,3.67
2022-12-05T08:48:44.662Z,4.07
2022-12-05T08:51:13.658Z,4.53
2022-12-05T08:53:44.808Z,4.30
2022-12-05T08:56:13.788Z,5.87
2022-12-05T08:58:41.555Z,4.53
2022-12-05T09:01:16.639Z,4.57
2022-12-05T09:03:47.851Z,4.47
2022-12-05T09:06:18.858Z,4.37
2022-12-05T09:08:49.876Z,4.80
2022-12-05T09:11:19.950Z,3.93
2022-12-05T09:13:47.343Z,3.60
2022-12-05T09:16:20.403Z,3.80
2022-12-05T09:18:48.753Z,3.87
2022-12-05T09:21:18.082Z,3.63
2022-12-05T09:23:45.083Z,3.43
2022-12-05T09:26:14.633Z,4.37
2022-12-05T09:28:42.819Z,3.80
2022-12-05T09:31:13.653Z,4.00
2022-12-05T09:33:41.325Z,3.67
2022-12-05T09:36:13.559Z,3.95
2022-12-05T09:38:43.064Z,3.17
2022-12-05T09:41:48.284Z,3.55
2022-12-05T09:44:55.397Z,3.60
2022-12-05T09:47:22.028Z,2.92
2022-12-05T09:49:59.842Z,3.05
2022-12-05T09:52:31.545Z,3.00
2022-12-05T09:55:06.489Z,2.97
2022-12-05T09:57:41.630Z,2.97
2022-12-05T10:00:10.353Z,3.42
2022-12-05T10:02:47.679Z,3.22
2022-12-05T10:05:24.552Z,2.50
2022-12-05T10:08:03.304Z,2.72
2022-12-05T10:10:45.477Z,2.78
2022-12-05T10:13:59.047Z,2.65
2022-12-05T10:17:01.059Z,3.38
2022-12-05T10:19:36.088Z,3.50
2022-12-05T10:22:17.319Z,3.15
2022-12-05T10:24:52.157Z,2.80
2022-12-05T10:27:24.582Z,2.38
2022-12-05T10:29:59.925Z,2.22
2022-12-05T10:32:49.055Z,2.25
2022-12-05T10:35:24.658Z,2.65
2022-12-05T10:37:55.840Z,2.03
2022-12-05T10:40:22.951Z,2.22
2022-12-05T10:42:50.660Z,2.15
2022-12-05T10:45:21.753Z,2.03
2022-12-05T10:47:49.985Z,2.42
2022-12-05T10:50:36.087Z,2.28
2022-12-05T10:53:05.293Z,2.45
2022-12-05T10:56:06.559Z,2.35
2022-12-05T10:58:31.628Z,2.30
2022-12-05T11:01:07.535Z,2.75
2022-12-05T11:03:38.003Z,1.90
2022-12-05T11:06:25.621Z,2.40
2022-12-05T11:09:10.041Z,2.22
2022-12-05T11:11:36.786Z,2.70
2022-12-05T11:14:06.480Z,2.00
2022-12-05T11:16:39.218Z,2.20
2022-12-05T11:19:20.102Z,2.25
2022-12-05T11:21:46.587Z,2.63
2022-12-05T11:24:38.972Z,2.22
2022-12-05T11:27:17.853Z,2.78
2022-12-05T11:29:53.951Z,2.58
2022-12-05T11:32:25.953Z,2.50
2022-12-05T11:35:04.768Z,2.70
2022-12-05T11:37:52.024Z,2.50
2022-12-05T11:40:38.649Z,2.42
2022-12-05T11:43:48.227Z,2.08
2022-12-05T11:46:40.634Z,2.08
2022-12-05T11:49:32.241Z,2.03
2022-12-05T11:52:08.558Z,1.85
2022-12-05T11:55:06.448Z,2.38
2022-12-05T11:58:07.555Z,2.15
2022-12-05T12:00:46.394Z,2.47
2022-12-05T12:03:51.135Z,1.88
2022-12-05T12:06:29.078Z,1.80
2022-12-05T12:09:30.594Z,2.03
2022-12-05T12:12:15.781Z,1.83
2022-12-05T12:14:57.672Z,2.13
2022-12-05T12:17:45.172Z,1.85
2022-12-05T12:20:41.907Z,2.00
2022-12-05T12:23:26.255Z,2.28
2022-12-05T12:26:08.172Z,2.47
2022-12-05T12:28:37.642Z,2.08
2022-12-05T12:31:15.517Z,2.03
2022-12-05T12:33:56.006Z,2.50
2022-12-05T12:36:34.254Z,2.20
2022-12-05T12:39:19.542Z,2.30
2022-12-05T12:42:01.407Z,1.90
2022-12-05T12:44:39.995Z,2.47
2022-12-05T12:47:47.544Z,1.90
2022-12-05T12:50:17.707Z,2.05
2022-12-05T12:53:06.934Z,1.88
2022-12-05T12:55:55.390Z,2.15
2022-12-05T12:58:24.636Z,1.58
2022-12-05T13:01:00.431Z,1.80
2022-12-05T13:03:36.566Z,1.50
2022-12-05T13:06:12.998Z,1.42
2022-12-05T13:09:11.635Z,1.80
2022-12-05T13:11:42.029Z,1.95
2022-12-05T13:14:17.105Z,1.40
2022-12-05T13:16:50.388Z,1.88
2022-12-05T13:19:31.258Z,1.67
2022-12-05T13:21:58.495Z,1.83
2022-12-05T13:24:29.071Z,1.50
2022-12-05T13:27:00.535Z,1.30
2022-12-05T13:29:40.995Z,1.98
2022-12-05T13:32:29.937Z,1.65
2022-12-05T13:35:40.021Z,1.67
2022-12-05T13:38:34.825Z,1.85
2022-12-05T13:41:20.260Z,1.38
2022-12-05T13:44:05.497Z,1.45
2022-12-05T13:46:38.741Z,1.40
2022-12-05T13:49:17.459Z,1.60
2022-12-05T13:51:45.345Z,1.60
2022-12-05T13:54:24.074Z,1.33
2022-12-05T13:57:01.529Z,1.75
2022-12-05T14:00:23.877Z,1.70
2022-12-05T14:02:53.222Z,1.35
2022-12-05T14:05:25.168Z,1.33
2022-12-05T14:08:02.243Z,1.50
2022-12-05T14:10:36.175Z,1.48
2022-12-05T14:13:23.757Z,1.30
2022-12-05T14:15:51.878Z,1.20
2022-12-05T14:18:33.290Z,1.42
2022-12-05T14:21:02.993Z,1.60
2022-12-05T14:23:39.107Z,1.60
2022-12-05T14:26:31.969Z,1.83
2022-12-05T14:29:21.775Z,1.90
2022-12-05T14:32:15.985Z,1.80
2022-12-05T14:35:02.262Z,1.52
2022-12-05T14:37:38.765Z,2.10
2022-12-05T14:40:23.681Z,1.70
2022-12-05T14:42:55.930Z,1.67
2022-12-05T14:45:42.729Z,1.42
2022-12-05T14:48:15.031Z,1.63
2022-12-05T14:50:50.771Z,1.63
2022-12-05T14:53:22.876Z,1.60
2022-12-05T14:56:10.271Z,1.50
2022-12-05T14:58:57.703Z,2.38
2022-12-05T15:01:29.732Z,2.90
2022-12-05T15:04:05.239Z,2.08
2022-12-05T15:06:42.953Z,1.10
2022-12-05T15:09:38.079Z,1.50
2022-12-05T15:12:20.910Z,1.35
2022-12-05T15:14:53.972Z,1.55
2022-12-05T15:17:26.985Z,1.40
2022-12-05T15:20:04.053Z,1.60
2022-12-05T15:22:36.543Z,1.60
2022-12-05T15:25:26.461Z,1.35
2022-12-05T15:27:59.026Z,1.52
2022-12-05T15:30:26.968Z,1.17
2022-12-05T15:32:59.274Z,1.50
2022-12-05T15:35:28.807Z,1.55
2022-12-05T15:37:58.341Z,1.52
2022-12-05T15:40:26.215Z,1.60
2022-12-05T15:42:55.531Z,1.55
2022-12-05T15:45:27.251Z,1.40
2022-12-05T15:48:11.689Z,1.55
2022-12-05T15:50:41.075Z,1.70
2022-12-05T15:53:21.271Z,1.83
2022-12-05T15:55:58.952Z,1.30
2022-12-05T15:58:33.570Z,1.73
2022-12-05T16:01:20.401Z,1.38
2022-12-05T16:04:31.355Z,1.88
2022-12-05T16:07:03.084Z,2.55
2022-12-05T16:09:33.618Z,2.80
2022-12-05T16:12:05.926Z,2.75
2022-12-05T16:14:58.811Z,3.50
2022-12-05T16:17:23.951Z,3.47
2022-12-05T16:19:50.681Z,2.88
2022-12-05T16:22:23.144Z,3.30
2022-12-05T16:25:00.901Z,2.88
2022-12-05T16:27:33.101Z,3.20
2022-12-05T16:30:23.304Z,3.10
2022-12-05T16:32:58.393Z,3.50
2022-12-05T16:35:38.771Z,4.18
2022-12-05T16:38:20.259Z,3.08
2022-12-05T16:40:49.981Z,3.28
2022-12-05T16:43:22.733Z,3.47
2022-12-05T16:45:55.147Z,3.40
2022-12-05T16:48:28.654Z,3.22
2022-12-05T16:51:13.656Z,5.75
2022-12-05T16:53:43.108Z,7.10
2022-12-05T16:56:24.560Z,6.60
2022-12-05T16:58:51.587Z,3.60
2022-12-05T17:01:22.927Z,5.00
2022-12-05T17:03:54.356Z,4.00
2022-12-05T17:06:24.080Z,4.20
2022-12-05T17:08:52.077Z,4.60
2022-12-05T17:11:46.292Z,3.80
2022-12-05T17:14:15.028Z,4.23
2022-12-05T17:16:42.447Z,4.83
2022-12-05T17:19:10.798Z,5.03
2022-12-05T17:21:38.910Z,5.30
2022-12-05T17:24:06.187Z,5.83
2022-12-05T17:26:33.209Z,5.57
2022-12-05T17:28:59.721Z,5.37
2022-12-05T17:31:26.497Z,6.00
2022-12-05T17:33:54.277Z,6.37
2022-12-05T17:36:21.295Z,6.03
2022-12-05T17:38:51.021Z,5.90
2022-12-05T17:41:20.405Z,5.30
2022-12-05T17:43:47.519Z,4.90
2022-12-05T17:46:17.258Z,5.07
2022-12-05T17:48:43.868Z,4.70
2022-12-05T17:51:12.982Z,5.50
2022-12-05T17:53:39.527Z,5.10
2022-12-05T17:56:06.574Z,5.73
2022-12-05T17:58:33.542Z,6.70
2022-12-05T18:01:00.961Z,7.43
2022-12-05T18:03:28.031Z,6.17
2022-12-05T18:05:54.599Z,6.13
2022-12-05T18:08:24.052Z,6.30
2022-12-05T18:10:51.613Z,5.97
2022-12-05T18:13:18.572Z,6.00
2022-12-05T18:15:48.306Z,6.80
2022-12-05T18:18:17.299Z,7.77
2022-12-05T18:20:44.252Z,8.03
2022-12-05T18:23:11.044Z,8.17
2022-12-05T18:25:37.771Z,7.70
2022-12-05T18:28:04.493Z,6.77
2022-12-05T18:30:31.084Z,6.73
2022-12-05T18:32:57.621Z,6.57
2022-12-05T18:35:40.430Z,7.77
2022-12-05T18:38:08.852Z,7.03
2022-12-05T18:40:35.586Z,8.00
2022-12-05T18:43:02.356Z,9.43
2022-12-05T18:45:28.939Z,8.53
2022-12-05T18:48:04.600Z,8.53
2022-12-05T18:50:36.770Z,7.47
2022-12-05T18:53:03.661Z,7.70
2022-12-05T18:55:57.944Z,10.20
2022-12-05T18:58:16.824Z,10.77
2022-12-05T19:00:43.495Z,9.67
2022-12-05T19:03:10.033Z,10.77
2022-12-05T19:05:36.534Z,10.53
2022-12-05T19:08:03.307Z,10.30
2022-12-05T19:10:30.199Z,10.67
2022-12-05T19:12:57.211Z,8.90
2022-12-05T19:15:24.677Z,7.73
2022-12-05T19:17:54.225Z,7.83
2022-12-05T19:20:22.744Z,9.87
2022-12-05T19:22:56.371Z,8.33
2022-12-05T19:25:29.442Z,7.57
2022-12-05T19:27:56.110Z,7.87
2022-12-05T19:30:23.011Z,7.43
2022-12-05T19:32:49.539Z,6.37
2022-12-05T19:35:16.098Z,7.53
2022-12-05T19:37:42.673Z,7.30
2022-12-05T19:40:09.742Z,6.90
2022-12-05T19:42:36.271Z,5.80
2022-12-05T19:45:08.128Z,6.83
2022-12-05T19:47:36.191Z,6.87
2022-12-05T19:50:04.133Z,7.70
2022-12-05T19:52:31.414Z,7.20
2022-12-05T19:54:58.657Z,8.57
2022-12-05T19:57:29.822Z,8.50
2022-12-05T19:59:57.957Z,7.97
2022-12-05T20:02:25.537Z,8.37
2022-12-05T20:04:52.165Z,7.63
2022-12-05T20:07:18.950Z,9.53
2022-12-05T20:09:45.614Z,8.93
2022-12-05T20:12:12.477Z,9.17
2022-12-05T20:14:42.180Z,8.47
2022-12-05T20:17:08.824Z,8.53
2022-12-05T20:19:35.456Z,7.87
2022-12-05T20:22:01.941Z,9.43
2022-12-05T20:24:28.550Z,8.93
2022-12-05T20:26:55.069Z,8.13
2022-12-05T20:29:24.283Z,7.97
2022-12-05T20:31:56.776Z,7.93
2022-12-05T20:34:23.429Z,7.87
2022-12-05T20:36:52.118Z,8.43
2022-12-05T20:39:18.689Z,9.40
2022-12-05T20:41:45.738Z,10.27
2022-12-05T20:44:17.092Z,11.77
2022-12-05T20:46:44.026Z,10.53
2022-12-05T20:49:13.349Z,10.40
2022-12-05T20:51:42.451Z,8.77
2022-12-05T20:54:09.062Z,8.53
2022-12-05T20:56:38.614Z,7.27
2022-12-05T20:59:07.171Z,8.43
2022-12-05T21:01:37.613Z,7.43
2022-12-05T21:04:06.888Z,7.00
2022-12-05T21:06:38.397Z,6.50
2022-12-05T21:09:06.875Z,7.10
2022-12-05T21:11:33.379Z,7.00
2022-12-05T21:14:00.554Z,6.83
2022-12-05T21:16:28.221Z,7.07
2022-12-05T21:18:56.096Z,6.33
2022-12-05T21:21:24.974Z,5.97
2022-12-05T21:23:56.091Z,5.77
2022-12-05T21:26:24.729Z,6.80
2022-12-05T21:28:55.643Z,6.43
2022-12-05T21:31:30.896Z,7.27
2022-12-05T21:34:00.304Z,5.67
2022-12-05T21:36:29.355Z,6.23
2022-12-05T21:38:56.646Z,7.03
2022-12-05T21:41:24.904Z,6.53
2022-12-05T21:43:55.757Z,6.40
2022-12-05T21:46:25.776Z,5.90
2022-12-05T21:48:54.368Z,6.73
2022-12-05T21:51:23.976Z,6.63
2022-12-05T21:53:51.144Z,7.97
2022-12-05T21:56:26.371Z,6.93
2022-12-05T21:58:56.903Z,6.80
2022-12-05T22:01:28.540Z,6.13
2022-12-05T22:03:59.521Z,7.23
2022-12-05T22:06:26.946Z,7.40
2022-12-05T22:08:57.785Z,8.17
2022-12-05T22:11:27.484Z,6.83
2022-12-05T22:13:57.709Z,6.60
2022-12-05T22:16:32.757Z,5.80
2022-12-05T22:19:00.717Z,6.53
2022-12-05T22:21:28.084Z,5.33
2022-12-05T22:23:58.312Z,7.30
2022-12-05T22:26:28.057Z,7.43
2022-12-05T22:28:58.676Z,7.80
2022-12-05T22:31:28.257Z,7.47
2022-12-05T22:33:57.433Z,7.80
2022-12-05T22:36:26.512Z,7.77
2022-12-05T22:38:53.021Z,7.07
2022-12-05T22:41:21.739Z,8.27
2022-12-05T22:43:50.050Z,9.47
2022-12-05T22:46:19.652Z,8.23
2022-12-05T22:48:48.084Z,6.73
2022-12-05T22:51:15.357Z,7.53
2022-12-05T22:53:42.428Z,8.53
2022-12-05T22:56:11.491Z,11.07
2022-12-05T22:58:39.213Z,9.50
2022-12-05T23:01:21.251Z,9.00
2022-12-05T23:03:50.018Z,7.63
2022-12-05T23:06:18.133Z,7.53
2022-12-05T23:08:47.719Z,7.27
2022-12-05T23:11:18.288Z,7.70
2022-12-05T23:13:45.345Z,8.47
2022-12-05T23:16:14.650Z,7.97
2022-12-05T23:18:48.421Z,7.90
2022-12-05T23:21:24.318Z,7.37
2022-12-05T23:23:56.415Z,7.30
2022-12-05T23:26:25.430Z,6.77
2022-12-05T23:28:52.794Z,7.40
2022-12-05T23:31:20.191Z,7.23
2022-12-05T23:33:51.087Z,6.63
2022-12-05T23:36:18.624Z,7.13
2022-12-05T23:38:45.207Z,7.23
2022-12-05T23:41:17.787Z,8.00
2022-12-05T23:43:45.095Z,7.50
2022-12-05T23:46:13.927Z,9.13
2022-12-05T23:48:40.962Z,7.80
2022-12-05T23:51:08.893Z,7.50
2022-12-05T23:53:38.900Z,6.50
2022-12-05T23:56:13.240Z,8.03
2022-12-05T23:58:40.238Z,8.57
